createdAt,value
2023-04-18T00:00:34.613Z,6.51
2023-04-18T00:03:07.539Z,6.50
2023-04-18T00:05:50.449Z,6.48
2023-04-18T00:08:27.942Z,6.44
2023-04-18T00:11:01.652Z,6.41
2023-04-18T00:13:34.876Z,6.38
2023-04-18T00:16:10.236Z,6.36
2023-04-18T00:18:44.376Z,6.35
2023-04-18T00:21:18.654Z,6.38
2023-04-18T00:23:57.342Z,6.40
2023-04-18T00:26:35.132Z,6.41
2023-04-18T00:29:08.692Z,6.42
2023-04-18T00:31:45.158Z,6.43
2023-04-18T00:34:18.452Z,6.41
2023-04-18T00:36:54.852Z,6.36
2023-04-18T00:39:30.024Z,6.38
2023-04-18T00:42:04.512Z,6.39
2023-04-18T00:44:41.788Z,6.40
2023-04-18T00:47:17.825Z,6.41
2023-04-18T00:49:54.761Z,6.41
2023-04-18T00:52:35.575Z,6.38
2023-04-18T00:55:12.603Z,6.35
2023-04-18T00:57:47.897Z,6.30
2023-04-18T01:00:23.353Z,6.25
2023-04-18T01:02:58.771Z,6.20
2023-04-18T01:05:35.872Z,6.17
2023-04-18T01:08:20.485Z,6.18
2023-04-18T01:10:55.702Z,6.20
2023-04-18T01:13:30.607Z,6.18
2023-04-18T01:16:06.226Z,6.14
2023-04-18T01:18:42.572Z,6.14
2023-04-18T01:21:16.658Z,6.09
2023-04-18T01:24:15.631Z,6.10
2023-04-18T01:26:51.881Z,6.08
2023-04-18T01:29:28.498Z,6.09
2023-04-18T01:32:05.003Z,6.09
2023-04-18T01:34:44.106Z,6.07
2023-04-18T01:37:18.327Z,6.03
2023-04-18T01:39:54.200Z,5.99
2023-04-18T01:42:29.807Z,6.00
2023-04-18T01:45:04.449Z,5.99
2023-04-18T01:47:40.449Z,5.96
2023-04-18T01:50:18.822Z,5.90
2023-04-18T01:52:56.103Z,5.83
2023-04-18T01:55:31.470Z,5.80
2023-04-18T01:58:12.433Z,5.78
2023-04-18T02:00:51.907Z,5.71
2023-04-18T02:03:28.041Z,5.74
2023-04-18T02:06:06.974Z,5.72
2023-04-18T02:08:45.395Z,5.70
2023-04-18T02:11:20.554Z,5.67
2023-04-18T02:13:58.071Z,5.63
2023-04-18T02:16:35.628Z,5.61
2023-04-18T02:19:14.371Z,5.62
2023-04-18T02:21:49.555Z,5.60
2023-04-18T02:24:23.538Z,5.58
2023-04-18T02:27:02.354Z,5.55
2023-04-18T02:29:36.739Z,5.54
2023-04-18T02:32:13.480Z,5.55
2023-04-18T02:34:51.198Z,5.55
2023-04-18T02:37:29.190Z,5.53
2023-04-18T02:40:02.721Z,5.49
2023-04-18T02:42:38.290Z,5.46
2023-04-18T02:45:15.196Z,5.44
2023-04-18T02:47:55.508Z,5.44
2023-04-18T02:50:40.971Z,5.46
2023-04-18T02:53:13.918Z,5.44
2023-04-18T02:56:00.167Z,5.45
2023-04-18T02:58:45.316Z,5.41
2023-04-18T03:01:45.099Z,5.35
2023-04-18T03:04:20.980Z,5.32
2023-04-18T03:07:05.803Z,5.31
2023-04-18T03:09:41.421Z,5.28
2023-04-18T03:12:25.376Z,5.26
2023-04-18T03:14:59.844Z,5.22
2023-04-18T03:17:35.757Z,5.18
2023-04-18T03:20:12.679Z,5.15
2023-04-18T03:22:49.835Z,5.11
2023-04-18T03:25:28.379Z,5.07
2023-04-18T03:28:05.606Z,5.01
2023-04-18T03:30:40.455Z,4.97
2023-04-18T03:33:17.282Z,4.95
2023-04-18T03:35:57.257Z,4.89
2023-04-18T03:38:30.782Z,4.80
2023-04-18T03:41:05.395Z,4.79
2023-04-18T03:43:58.781Z,4.76
2023-04-18T03:46:36.481Z,4.72
2023-04-18T03:49:16.045Z,4.64
2023-04-18T03:51:55.746Z,4.58
2023-04-18T03:54:35.638Z,4.53
2023-04-18T03:57:10.663Z,4.50
2023-04-18T03:59:47.909Z,4.49
2023-04-18T04:02:51.117Z,4.44
2023-04-18T04:05:54.539Z,4.40
2023-04-18T04:09:14.298Z,4.41
2023-04-18T04:12:00.919Z,4.41
2023-04-18T04:14:36.341Z,4.38
2023-04-18T04:17:10.524Z,4.37
2023-04-18T04:25:39.015Z,4.44
2023-04-18T04:28:19.636Z,4.40
2023-04-18T04:30:58.559Z,4.39
2023-04-18T04:33:33.514Z,4.38
2023-04-18T04:36:10.728Z,4.41
2023-04-18T04:38:44.962Z,4.43
2023-04-18T04:41:18.373Z,4.53
2023-04-18T04:43:53.463Z,4.57
2023-04-18T04:46:33.505Z,4.55
2023-04-18T04:49:07.707Z,4.55
2023-04-18T04:51:42.332Z,4.60
2023-04-18T04:54:15.862Z,4.64
2023-04-18T04:56:51.492Z,4.63
2023-04-18T04:59:28.283Z,4.63
2023-04-18T05:02:01.581Z,4.63
2023-04-18T05:04:38.802Z,4.66
2023-04-18T05:07:13.212Z,4.70
2023-04-18T05:09:52.557Z,4.82
2023-04-18T05:12:30.862Z,4.90
2023-04-18T05:15:05.673Z,4.96
2023-04-18T05:17:43.607Z,5.01
2023-04-18T05:20:18.520Z,5.07
2023-04-18T05:22:52.071Z,5.16
2023-04-18T05:25:34.885Z,5.21
2023-04-18T05:28:12.239Z,5.29
2023-04-18T05:30:52.358Z,5.33
2023-04-18T05:33:27.452Z,5.37
2023-04-18T05:36:02.966Z,5.41
2023-04-18T05:38:39.725Z,5.46
2023-04-18T05:41:14.743Z,5.52
2023-04-18T05:43:58.212Z,5.57
2023-04-18T05:46:38.670Z,5.60
2023-04-18T05:49:11.900Z,5.62
2023-04-18T05:51:47.566Z,5.66
2023-04-18T05:54:22.050Z,5.73
2023-04-18T05:57:02.111Z,5.76
2023-04-18T05:59:36.196Z,5.78
2023-04-18T06:02:13.825Z,5.77
2023-04-18T06:04:46.005Z,5.84
2023-04-18T06:07:18.510Z,5.88
2023-04-18T06:09:52.030Z,5.91
2023-04-18T06:12:25.063Z,5.95
2023-04-18T06:14:58.801Z,5.96
2023-04-18T06:17:33.944Z,5.98
2023-04-18T06:20:07.930Z,6.05
2023-04-18T06:22:40.659Z,6.14
2023-04-18T06:25:14.360Z,6.23
2023-04-18T06:27:46.026Z,6.28
2023-04-18T06:30:22.332Z,6.37
2023-04-18T06:32:56.820Z,6.41
2023-04-18T06:35:32.683Z,6.40
2023-04-18T06:38:03.261Z,6.46
2023-04-18T06:40:35.490Z,6.47
2023-04-18T06:43:11.725Z,6.51
2023-04-18T06:45:46.115Z,6.50
2023-04-18T06:48:23.300Z,6.46
2023-04-18T06:50:57.197Z,6.46
2023-04-18T06:53:31.514Z,6.47
2023-04-18T06:56:04.496Z,6.51
2023-04-18T06:58:37.267Z,6.54
2023-04-18T07:01:10.229Z,6.47
2023-04-18T07:03:44.045Z,6.52
2023-04-18T07:06:17.172Z,6.50
2023-04-18T07:08:48.587Z,6.59
2023-04-18T07:11:25.911Z,6.62
2023-04-18T07:14:02.990Z,6.62
2023-04-18T07:16:35.621Z,6.62
2023-04-18T07:19:09.935Z,6.59
2023-04-18T07:21:44.066Z,6.61
2023-04-18T07:24:17.709Z,6.67
2023-04-18T07:26:54.887Z,6.70
2023-04-18T07:29:30.472Z,6.72
2023-04-18T07:32:02.608Z,6.79
2023-04-18T07:34:36.759Z,6.84
2023-04-18T07:37:09.653Z,6.93
2023-04-18T07:39:42.111Z,7.06
2023-04-18T07:42:15.142Z,7.21
2023-04-18T07:44:50.043Z,7.32
2023-04-18T07:47:23.497Z,7.37
2023-04-18T07:49:59.173Z,7.38
2023-04-18T07:52:34.853Z,7.38
2023-04-18T07:55:12.590Z,7.39
2023-04-18T07:57:51.016Z,7.48
2023-04-18T08:00:24.417Z,7.52
2023-04-18T08:02:57.632Z,7.54
2023-04-18T08:05:30.368Z,7.52
2023-04-18T08:08:04.135Z,7.58
2023-04-18T08:10:36.806Z,7.57
2023-04-18T08:13:08.493Z,7.62
2023-04-18T08:15:40.875Z,7.66
2023-04-18T08:18:14.032Z,7.75
2023-04-18T08:20:50.233Z,7.90
2023-04-18T08:23:24.205Z,8.06
2023-04-18T08:25:57.878Z,8.23
2023-04-18T08:28:34.818Z,8.42
2023-04-18T08:31:09.292Z,8.51
2023-04-18T08:33:44.509Z,8.63
2023-04-18T08:36:18.575Z,8.70
2023-04-18T08:38:54.002Z,8.73
2023-04-18T08:41:28.121Z,8.87
2023-04-18T08:44:01.946Z,8.97
2023-04-18T08:46:42.579Z,8.95
2023-04-18T08:49:18.481Z,8.98
2023-04-18T08:51:55.372Z,9.00
2023-04-18T08:54:31.620Z,9.12
2023-04-18T08:57:14.425Z,9.33
2023-04-18T08:59:51.340Z,9.49
2023-04-18T09:02:27.423Z,9.69
2023-04-18T09:05:01.299Z,9.83
2023-04-18T09:07:37.226Z,9.86
2023-04-18T09:10:13.957Z,9.89
2023-04-18T09:12:51.011Z,9.91
2023-04-18T09:15:30.346Z,9.88
2023-04-18T09:18:06.729Z,9.87
2023-04-18T09:20:45.700Z,10.01
2023-04-18T09:23:26.788Z,10.38
2023-04-18T09:26:01.465Z,10.85
2023-04-18T09:28:34.636Z,11.35
2023-04-18T09:31:15.128Z,12.12
2023-04-18T09:33:57.405Z,12.84
2023-04-18T09:36:31.958Z,13.22
2023-04-18T09:39:07.625Z,13.16
2023-04-18T09:41:40.967Z,13.24
2023-04-18T09:44:16.184Z,13.45
2023-04-18T09:46:51.591Z,13.46
2023-04-18T09:49:28.203Z,13.73
2023-04-18T09:52:05.459Z,13.73
2023-04-18T09:54:46.568Z,13.53
2023-04-18T09:57:22.227Z,13.22
2023-04-18T10:00:00.435Z,12.74
2023-04-18T10:02:43.358Z,12.38
2023-04-18T10:05:19.561Z,11.99
2023-04-18T10:07:54.960Z,11.70
2023-04-18T10:10:28.728Z,11.48
2023-04-18T10:13:04.333Z,11.23
2023-04-18T10:15:37.422Z,11.03
2023-04-18T10:18:17.337Z,10.96
2023-04-18T10:20:50.592Z,10.90
2023-04-18T10:23:39.139Z,10.96
2023-04-18T10:26:15.232Z,11.20
2023-04-18T10:28:58.895Z,11.34
2023-04-18T10:31:32.297Z,11.85
2023-04-18T10:34:07.584Z,12.64
2023-04-18T10:36:40.788Z,13.43
2023-04-18T10:39:28.008Z,13.97
2023-04-18T10:42:00.039Z,14.16
2023-04-18T10:44:34.404Z,14.15
2023-04-18T10:47:29.050Z,14.03
2023-04-18T10:50:06.646Z,13.79
2023-04-18T10:52:39.433Z,13.56
2023-04-18T10:55:19.610Z,13.34
2023-04-18T10:57:56.243Z,13.01
2023-04-18T11:00:27.914Z,12.80
2023-04-18T11:03:00.984Z,12.76
2023-04-18T11:05:33.802Z,12.77
2023-04-18T11:08:07.146Z,12.85
2023-04-18T11:10:40.605Z,12.96
2023-04-18T11:13:15.359Z,13.21
2023-04-18T11:15:47.297Z,13.65
2023-04-18T11:18:25.880Z,14.14
2023-04-18T11:20:59.817Z,14.74
2023-04-18T11:23:34.926Z,14.97
2023-04-18T11:26:10.285Z,15.22
2023-04-18T11:28:49.526Z,15.33
2023-04-18T11:31:21.813Z,15.39
2023-04-18T11:34:01.742Z,15.54
2023-04-18T11:36:38.277Z,15.89
2023-04-18T11:39:12.917Z,15.89
2023-04-18T11:41:52.121Z,15.76
2023-04-18T11:44:29.513Z,15.60
2023-04-18T11:47:02.623Z,15.77
2023-04-18T11:50:01.680Z,15.56
2023-04-18T11:52:39.323Z,15.17
2023-04-18T11:55:25.330Z,14.90
2023-04-18T11:57:58.878Z,14.92
2023-04-18T12:00:41.206Z,14.82
2023-04-18T12:03:21.560Z,14.57
2023-04-18T12:06:03.445Z,14.35
2023-04-18T12:08:39.297Z,14.07
2023-04-18T12:11:11.815Z,13.87
2023-04-18T12:13:45.194Z,13.78
2023-04-18T12:16:20.069Z,13.68
2023-04-18T12:18:54.326Z,13.67
2023-04-18T12:21:29.545Z,13.79
2023-04-18T12:24:03.780Z,14.28
2023-04-18T12:26:48.227Z,14.93
2023-04-18T12:29:23.509Z,15.63
2023-04-18T12:32:00.313Z,16.15
2023-04-18T12:34:36.289Z,16.16
2023-04-18T12:37:09.801Z,16.31
2023-04-18T12:39:45.821Z,16.12
2023-04-18T12:42:21.858Z,16.00
2023-04-18T12:44:56.890Z,16.24
2023-04-18T12:47:32.906Z,16.55
2023-04-18T12:50:11.344Z,16.74
2023-04-18T12:52:46.818Z,16.83
2023-04-18T12:55:20.033Z,16.87
2023-04-18T12:58:07.280Z,16.58
2023-04-18T13:00:42.683Z,16.00
2023-04-18T13:03:16.589Z,15.53
2023-04-18T13:05:49.940Z,15.19
2023-04-18T13:08:26.347Z,14.89
2023-04-18T13:10:59.841Z,14.65
2023-04-18T13:13:35.789Z,14.39
2023-04-18T13:16:11.360Z,14.17
2023-04-18T13:18:43.958Z,13.94
2023-04-18T13:21:17.933Z,13.68
2023-04-18T13:23:56.189Z,13.53
2023-04-18T13:26:36.735Z,13.48
2023-04-18T13:29:14.833Z,13.41
2023-04-18T13:31:49.466Z,13.35
2023-04-18T13:34:25.746Z,13.29
2023-04-18T13:36:59.112Z,13.24
2023-04-18T13:39:39.156Z,13.13
2023-04-18T13:42:16.163Z,13.04
2023-04-18T13:44:51.505Z,13.00
2023-04-18T13:47:25.342Z,12.99
2023-04-18T13:49:59.433Z,13.03
2023-04-18T13:52:33.482Z,13.14
2023-04-18T13:55:13.480Z,13.26
2023-04-18T13:57:47.101Z,13.32
2023-04-18T14:00:20.978Z,13.30
2023-04-18T14:02:55.925Z,13.23
2023-04-18T14:05:34.729Z,13.13
2023-04-18T14:08:13.315Z,13.04
2023-04-18T14:10:48.001Z,12.97
2023-04-18T14:13:22.117Z,12.95
2023-04-18T14:15:58.416Z,13.00
2023-04-18T14:18:32.993Z,13.06
2023-04-18T14:21:06.359Z,13.17
2023-04-18T14:23:40.343Z,13.54
2023-04-18T14:26:15.521Z,14.42
2023-04-18T14:28:49.166Z,15.26
2023-04-18T14:31:22.552Z,16.36
2023-04-18T14:33:56.192Z,16.38
2023-04-18T14:36:29.488Z,15.82
2023-04-18T14:39:05.856Z,15.23
2023-04-18T14:41:40.888Z,14.69
2023-04-18T14:44:14.702Z,14.30
2023-04-18T14:46:56.526Z,13.97
2023-04-18T14:49:34.799Z,13.78
2023-04-18T14:52:16.534Z,13.62
2023-04-18T14:54:51.696Z,14.03
2023-04-18T14:57:32.889Z,14.63
2023-04-18T15:00:11.273Z,14.54
2023-04-18T15:02:50.320Z,14.29
2023-04-18T15:05:25.468Z,14.13
2023-04-18T15:07:59.131Z,14.15
2023-04-18T15:10:32.823Z,13.90
2023-04-18T15:13:08.556Z,13.74
2023-04-18T15:15:44.109Z,13.53
2023-04-18T15:18:17.660Z,13.33
2023-04-18T15:20:51.855Z,13.19
2023-04-18T15:23:26.875Z,13.11
2023-04-18T15:26:02.166Z,13.04
2023-04-18T15:28:37.033Z,13.01
2023-04-18T15:31:13.402Z,13.07
2023-04-18T15:39:44.959Z,13.66
2023-04-18T15:42:18.165Z,13.49
2023-04-18T15:44:53.703Z,13.25
2023-04-18T15:47:27.569Z,13.08
2023-04-18T15:50:00.973Z,13.02
2023-04-18T15:52:34.639Z,12.97
2023-04-18T15:55:12.612Z,12.91
2023-04-18T15:57:45.372Z,12.88
2023-04-18T16:00:22.797Z,12.85
2023-04-18T16:02:54.334Z,12.82
2023-04-18T16:05:29.124Z,12.81
2023-04-18T16:08:04.073Z,12.79
2023-04-18T16:10:41.046Z,12.81
2023-04-18T16:13:14.746Z,12.82
2023-04-18T16:15:48.850Z,12.88
2023-04-18T16:18:21.921Z,12.89
2023-04-18T16:20:55.207Z,12.79
2023-04-18T16:23:28.919Z,12.72
2023-04-18T16:26:03.558Z,12.61
2023-04-18T16:28:41.015Z,12.54
2023-04-18T16:31:13.723Z,12.52
2023-04-18T16:34:08.190Z,12.50
2023-04-18T16:36:43.461Z,12.46
2023-04-18T16:39:19.922Z,12.37
2023-04-18T16:41:55.168Z,12.22
2023-04-18T16:44:30.574Z,12.06
2023-04-18T16:47:06.686Z,11.92
2023-04-18T16:49:39.716Z,11.79
2023-04-18T16:52:13.823Z,11.69
2023-04-18T16:54:49.377Z,11.61
2023-04-18T16:57:26.447Z,11.52
2023-04-18T17:00:02.272Z,11.45
2023-04-18T17:02:35.910Z,11.39
2023-04-18T17:05:10.174Z,11.32
2023-04-18T17:07:45.455Z,11.25
2023-04-18T17:10:18.094Z,11.19
2023-04-18T17:12:49.765Z,11.13
2023-04-18T17:15:23.818Z,11.08
2023-04-18T17:17:56.786Z,11.04
2023-04-18T17:20:30.536Z,10.99
2023-04-18T17:23:04.197Z,10.95
2023-04-18T17:25:39.069Z,10.87
2023-04-18T17:28:12.247Z,10.81
2023-04-18T17:30:48.900Z,10.71
2023-04-18T17:33:27.580Z,10.59
2023-04-18T17:36:00.831Z,10.50
2023-04-18T17:38:32.943Z,10.42
2023-04-18T17:41:07.723Z,10.33
2023-04-18T17:43:42.499Z,10.24
2023-04-18T17:46:15.214Z,10.14
2023-04-18T17:48:46.372Z,10.10
2023-04-18T17:51:20.741Z,10.04
2023-04-18T17:53:52.580Z,9.97
2023-04-18T17:56:24.654Z,9.95
2023-04-18T17:59:00.763Z,9.94
2023-04-18T18:01:35.968Z,9.91
2023-04-18T18:04:11.019Z,9.87
2023-04-18T18:06:57.864Z,9.82
2023-04-18T18:09:30.959Z,9.77
2023-04-18T18:12:06.466Z,9.70
2023-04-18T18:14:41.457Z,9.65
2023-04-18T18:17:14.431Z,9.62
2023-04-18T18:19:54.895Z,9.60
2023-04-18T18:22:32.171Z,9.53
2023-04-18T18:25:07.280Z,9.52
2023-04-18T18:27:45.315Z,9.48
2023-04-18T18:30:20.558Z,9.45
2023-04-18T18:32:58.101Z,9.41
2023-04-18T18:35:32.537Z,9.38
2023-04-18T18:38:09.618Z,9.38
2023-04-18T18:40:47.030Z,9.37
2023-04-18T18:43:21.564Z,9.36
2023-04-18T18:45:56.154Z,9.33
2023-04-18T18:48:33.987Z,9.30
2023-04-18T18:51:06.864Z,9.27
2023-04-18T18:53:40.866Z,9.27
2023-04-18T18:56:18.744Z,9.27
2023-04-18T18:58:50.752Z,9.25
2023-04-18T19:01:26.168Z,9.11
2023-04-18T19:04:03.907Z,9.22
2023-04-18T19:06:45.097Z,9.20
2023-04-18T19:09:20.721Z,9.21
2023-04-18T19:11:56.669Z,9.21
2023-04-18T19:14:34.477Z,9.20
2023-04-18T19:17:10.455Z,9.18
2023-04-18T19:19:46.350Z,9.15
2023-04-18T19:22:20.189Z,9.13
2023-04-18T19:24:59.164Z,9.13
2023-04-18T19:27:35.689Z,9.14
2023-04-18T19:30:11.121Z,9.12
2023-04-18T19:32:49.751Z,9.10
2023-04-18T19:35:29.535Z,9.07
2023-04-18T19:38:05.387Z,9.03
2023-04-18T19:40:45.800Z,9.05
2023-04-18T19:43:22.488Z,9.05
2023-04-18T19:46:01.151Z,9.03
2023-04-18T19:48:38.739Z,9.02
2023-04-18T19:51:14.903Z,8.99
2023-04-18T19:53:51.765Z,8.97
2023-04-18T19:56:25.813Z,8.97
2023-04-18T19:59:04.282Z,8.96
2023-04-18T20:01:46.789Z,8.95
2023-04-18T20:04:22.933Z,8.90
2023-04-18T20:06:58.771Z,8.92
2023-04-18T20:09:37.232Z,8.92
2023-04-18T20:12:13.828Z,8.92
2023-04-18T20:14:49.413Z,8.92
2023-04-18T20:17:23.468Z,8.89
2023-04-18T20:20:01.635Z,8.89
2023-04-18T20:22:40.437Z,8.90
2023-04-18T20:25:22.159Z,8.90
2023-04-18T20:28:00.059Z,8.89
2023-04-18T20:36:30.205Z,8.90
2023-04-18T20:39:08.418Z,8.87
2023-04-18T20:41:47.300Z,8.86
2023-04-18T20:44:26.535Z,8.84
2023-04-18T20:47:01.530Z,8.77
2023-04-18T20:49:35.742Z,8.83
2023-04-18T20:52:12.459Z,8.83
2023-04-18T20:54:51.440Z,8.81
2023-04-18T20:57:32.465Z,8.76
2023-04-18T21:00:07.204Z,8.75
2023-04-18T21:02:47.261Z,8.76
2023-04-18T21:05:24.205Z,8.76
2023-04-18T21:08:01.260Z,8.74
2023-04-18T21:10:36.365Z,8.72
2023-04-18T21:13:10.823Z,8.69
2023-04-18T21:15:47.259Z,8.69
2023-04-18T21:18:22.874Z,8.70
2023-04-18T21:21:01.126Z,8.69
2023-04-18T21:23:46.332Z,8.68
2023-04-18T21:26:24.029Z,8.67
2023-04-18T21:29:05.329Z,8.65
2023-04-18T21:31:39.159Z,8.68
2023-04-18T21:38:08.944Z,8.68
2023-04-18T21:46:50.776Z,8.67
2023-04-18T21:49:26.988Z,8.63
2023-04-18T21:52:01.724Z,8.61
2023-04-18T21:54:40.827Z,8.62
2023-04-18T21:57:19.209Z,8.60
2023-04-18T21:59:53.965Z,8.57
2023-04-18T22:02:28.198Z,8.53
2023-04-18T22:05:05.520Z,8.48
2023-04-18T22:11:24.048Z,8.49
2023-04-18T22:13:58.551Z,8.45
2023-04-18T22:16:35.494Z,8.42
2023-04-18T22:19:12.903Z,8.36
2023-04-18T22:21:49.152Z,8.37
2023-04-18T22:24:23.307Z,8.31
2023-04-18T22:26:59.646Z,8.34
2023-04-18T22:29:35.346Z,8.33
2023-04-18T22:32:16.580Z,8.32
2023-04-18T22:34:53.552Z,8.33
2023-04-18T22:37:31.979Z,8.33
2023-04-18T22:40:07.669Z,8.33
2023-04-18T22:42:42.584Z,8.32
2023-04-18T22:45:16.998Z,8.33
2023-04-18T22:47:49.885Z,8.35
2023-04-18T22:50:22.333Z,8.35
2023-04-18T22:52:58.820Z,8.34
2023-04-18T22:55:33.992Z,8.33
2023-04-18T22:58:09.963Z,8.35
2023-04-18T23:00:47.501Z,8.37
2023-04-18T23:03:24.013Z,8.37
2023-04-18T23:05:59.959Z,8.35
2023-04-18T23:08:36.778Z,8.36
2023-04-18T23:11:15.085Z,8.38
2023-04-18T23:13:50.878Z,8.41
2023-04-18T23:16:25.556Z,8.41
2023-04-18T23:19:00.712Z,8.40
2023-04-18T23:21:39.649Z,8.39
2023-04-18T23:24:14.320Z,8.40
2023-04-18T23:26:47.481Z,8.42
2023-04-18T23:29:25.374Z,8.41
2023-04-18T23:32:01.855Z,8.40
2023-04-18T23:34:43.108Z,8.39
2023-04-18T23:37:16.912Z,8.36
2023-04-18T23:39:50.874Z,8.40
2023-04-18T23:42:30.595Z,8.40
2023-04-18T23:45:07.667Z,8.39
2023-04-18T23:47:43.632Z,8.38
2023-04-18T23:50:17.379Z,8.37
2023-04-18T23:52:51.361Z,8.38
2023-04-18T23:55:26.325Z,8.40
2023-04-18T23:58:04.071Z,8.38
